EWR weather

Newark Liberty International Airport
Newark, New Jersey, United States

Public forecast

Using degrees Fahrenheit for public forecast. Weather courtesy of forecast.io.

METAR (pilot weather report)

Retrieved 2018/01/20 23:51 UTC (1 hour ago):

KEWR 202351Z 25009KT 10SM FEW190 BKN250 08/M02 A2999 RMK AO2 SLP153 T00781022 10128 20078 51027 $

TAF (pilot weather forecast)

Forecast is more than 12 hours old.

Retrieved 2018/01/20 00:22 UTC (1 day ago):

TAF KEWR 202320Z 2100/2206 26010KT P6SM BKN250 FM210300 29007KT P6SM SCT250 FM211200 31006KT P6SM FEW250 FM212100 27005KT P6SM BKN040 FM220300 24004KT P6SM BKN030